createdAt,value
2018-09-06T00:00:50.421Z,20.53
2018-09-06T00:03:18.795Z,20.40
2018-09-06T00:05:47.080Z,21.53
2018-09-06T00:08:15.481Z,26.00
2018-09-06T00:10:43.931Z,26.17
2018-09-06T00:13:12.218Z,27.50
2018-09-06T00:15:40.798Z,21.07
2018-09-06T00:18:09.109Z,24.40
2018-09-06T00:20:37.599Z,24.13
2018-09-06T00:23:06.101Z,21.80
2018-09-06T00:25:34.725Z,22.50
2018-09-06T00:28:03.280Z,24.23
2018-09-06T00:30:31.553Z,19.93
2018-09-06T00:32:59.913Z,22.90
2018-09-06T00:35:28.346Z,24.07
2018-09-06T00:37:56.804Z,23.80
2018-09-06T00:40:25.147Z,26.07
2018-09-06T00:42:53.569Z,23.03
2018-09-06T00:45:21.869Z,24.03
2018-09-06T00:47:50.237Z,24.60
2018-09-06T00:50:19.447Z,22.20
2018-09-06T00:52:49.172Z,21.23
2018-09-06T00:55:17.949Z,25.87
2018-09-06T00:57:46.233Z,31.03
2018-09-06T01:00:14.747Z,24.30
2018-09-06T01:02:43.412Z,23.20
2018-09-06T01:05:11.770Z,26.20
2018-09-06T01:07:40.089Z,26.70
2018-09-06T01:10:08.582Z,26.10
2018-09-06T01:12:36.888Z,25.50
2018-09-06T01:15:05.233Z,22.87
2018-09-06T01:17:33.527Z,23.00
2018-09-06T01:20:01.810Z,21.33
2018-09-06T01:22:30.141Z,21.90
2018-09-06T01:24:58.733Z,24.10
2018-09-06T01:27:27.045Z,19.90
2018-09-06T01:29:55.352Z,23.10
2018-09-06T01:32:23.652Z,21.33
2018-09-06T01:34:52.483Z,21.93
2018-09-06T01:37:20.834Z,20.73
2018-09-06T01:39:49.444Z,23.73
2018-09-06T01:42:17.819Z,23.80
2018-09-06T01:44:46.121Z,22.70
2018-09-06T01:47:14.441Z,26.10
2018-09-06T01:49:42.788Z,23.70
2018-09-06T01:52:11.047Z,25.37
2018-09-06T01:54:39.348Z,20.30
2018-09-06T01:57:07.626Z,21.37
2018-09-06T01:59:35.907Z,23.70
2018-09-06T02:02:04.264Z,24.93
2018-09-06T02:04:32.604Z,26.47
2018-09-06T02:07:00.928Z,26.00
2018-09-06T02:09:29.215Z,28.20
2018-09-06T02:11:57.508Z,25.50
2018-09-06T02:14:25.803Z,25.63
2018-09-06T02:16:54.143Z,22.93
2018-09-06T02:19:22.463Z,28.40
2018-09-06T02:21:50.748Z,25.63
2018-09-06T02:24:19.112Z,25.53
2018-09-06T02:26:47.354Z,26.13
2018-09-06T02:29:15.631Z,26.20
2018-09-06T02:31:44.007Z,27.17
2018-09-06T02:34:12.299Z,26.40
2018-09-06T02:36:40.584Z,27.63
2018-09-06T02:39:10.061Z,25.63
2018-09-06T02:41:38.343Z,23.40
2018-09-06T02:44:07.056Z,24.23
2018-09-06T02:46:35.482Z,26.17
2018-09-06T02:49:03.820Z,26.63
2018-09-06T02:51:32.116Z,32.07
2018-09-06T02:54:00.512Z,24.20
2018-09-06T02:56:28.729Z,29.77
2018-09-06T02:58:57.040Z,29.97
2018-09-06T03:01:25.348Z,35.10
2018-09-06T03:03:53.790Z,30.87
2018-09-06T03:06:22.125Z,33.17
2018-09-06T03:08:50.516Z,37.27
2018-09-06T03:11:29.888Z,32.30
2018-09-06T03:13:58.192Z,32.27
2018-09-06T03:16:26.552Z,37.83
2018-09-06T03:18:55.004Z,41.10
2018-09-06T03:21:23.316Z,39.30
2018-09-06T03:23:51.616Z,34.17
2018-09-06T03:26:20.705Z,31.80
2018-09-06T03:28:50.297Z,31.50
2018-09-06T03:31:18.603Z,42.70
2018-09-06T03:33:47.062Z,43.37
2018-09-06T03:36:15.861Z,34.70
2018-09-06T03:38:44.753Z,36.67
2018-09-06T03:41:13.045Z,32.87
2018-09-06T03:43:41.356Z,33.70
2018-09-06T03:46:10.150Z,32.30
2018-09-06T03:48:38.432Z,38.17
2018-09-06T03:51:07.164Z,34.27
2018-09-06T03:53:35.823Z,30.37
2018-09-06T03:56:04.184Z,31.30
2018-09-06T03:58:32.577Z,34.70
2018-09-06T04:01:00.960Z,31.33
2018-09-06T04:03:29.279Z,31.60
2018-09-06T04:05:57.875Z,40.87
2018-09-06T04:08:26.189Z,37.17
2018-09-06T04:10:54.545Z,42.23
2018-09-06T04:13:22.819Z,39.30
2018-09-06T04:15:51.142Z,38.27
2018-09-06T04:18:19.439Z,45.13
2018-09-06T04:20:47.732Z,41.90
2018-09-06T04:23:16.072Z,40.40
2018-09-06T04:25:44.386Z,46.37
2018-09-06T04:28:12.756Z,39.97
2018-09-06T04:30:41.068Z,38.50
2018-09-06T04:33:09.367Z,43.50
2018-09-06T04:35:37.669Z,41.20
2018-09-06T04:38:05.985Z,41.47
2018-09-06T04:40:34.282Z,41.87
2018-09-06T04:43:02.589Z,40.17
2018-09-06T04:45:31.049Z,41.77
2018-09-06T04:47:59.389Z,38.33
2018-09-06T04:50:27.841Z,38.03
2018-09-06T04:52:56.219Z,33.73
2018-09-06T04:55:24.639Z,26.90
2018-09-06T04:57:52.929Z,28.33
2018-09-06T05:00:21.502Z,31.23
2018-09-06T05:02:49.907Z,32.00
2018-09-06T05:05:18.260Z,37.47
2018-09-06T05:07:46.532Z,36.97
2018-09-06T05:10:14.824Z,38.40
2018-09-06T05:12:43.180Z,38.60
2018-09-06T05:15:11.459Z,37.23
2018-09-06T05:17:39.785Z,36.23
2018-09-06T05:20:08.104Z,40.17
2018-09-06T05:22:36.514Z,39.20
2018-09-06T05:25:04.828Z,42.83
2018-09-06T05:27:33.185Z,42.50
2018-09-06T05:30:01.472Z,38.20
2018-09-06T05:32:29.812Z,46.50
2018-09-06T05:34:58.145Z,42.50
2018-09-06T05:37:26.468Z,40.80
2018-09-06T05:39:54.777Z,42.33
2018-09-06T05:42:23.086Z,33.60
2018-09-06T05:44:51.398Z,38.50
2018-09-06T05:47:19.773Z,36.90
2018-09-06T05:49:48.098Z,37.13
2018-09-06T05:52:16.408Z,35.03
2018-09-06T05:54:44.792Z,35.40
2018-09-06T05:57:13.068Z,34.50
2018-09-06T05:59:41.375Z,36.93
2018-09-06T06:02:09.791Z,38.47
2018-09-06T06:04:38.076Z,37.43
2018-09-06T06:07:07.506Z,39.43
2018-09-06T06:09:35.836Z,37.53
2018-09-06T06:12:04.141Z,32.10
2018-09-06T06:14:32.432Z,36.60
2018-09-06T06:17:00.779Z,39.07
2018-09-06T06:19:29.091Z,32.40
2018-09-06T06:21:57.408Z,41.63
2018-09-06T06:24:25.676Z,36.83
2018-09-06T06:26:54.064Z,38.07
2018-09-06T06:29:22.395Z,40.70
2018-09-06T06:31:50.748Z,36.30
2018-09-06T06:34:19.120Z,38.87
2018-09-06T06:36:47.406Z,34.47
2018-09-06T06:39:16.032Z,37.63
2018-09-06T06:41:44.352Z,33.57
2018-09-06T06:44:12.654Z,30.80
2018-09-06T06:46:41.010Z,28.63
2018-09-06T06:49:09.332Z,29.63
2018-09-06T06:51:37.666Z,36.90
2018-09-06T06:54:06.021Z,28.97
2018-09-06T06:56:34.312Z,27.63
2018-09-06T06:59:02.647Z,30.60
2018-09-06T07:01:30.939Z,29.50
2018-09-06T07:03:59.246Z,32.67
2018-09-06T07:06:27.572Z,32.50
2018-09-06T07:08:55.856Z,34.00
2018-09-06T07:11:24.153Z,29.90
2018-09-06T07:13:52.498Z,36.70
2018-09-06T07:16:20.812Z,31.93
2018-09-06T07:18:49.103Z,33.40
2018-09-06T07:21:18.153Z,39.40
2018-09-06T07:23:46.512Z,39.90
2018-09-06T07:26:14.814Z,40.83
2018-09-06T07:28:43.120Z,40.37
2018-09-06T07:31:11.416Z,37.80
2018-09-06T07:33:39.723Z,45.73
2018-09-06T07:36:08.042Z,52.13
2018-09-06T07:38:36.342Z,47.97
2018-09-06T07:41:04.635Z,57.13
2018-09-06T07:43:33.001Z,59.20
2018-09-06T07:46:01.362Z,58.50
2018-09-06T07:48:29.685Z,51.90
2018-09-06T07:50:57.978Z,52.67
2018-09-06T07:53:26.349Z,52.33
2018-09-06T07:55:54.694Z,57.37
2018-09-06T07:58:23.513Z,50.27
2018-09-06T08:00:51.844Z,54.60
2018-09-06T08:03:20.158Z,58.20
2018-09-06T08:05:48.464Z,56.70
2018-09-06T08:08:16.821Z,56.13
2018-09-06T08:10:45.100Z,54.10
2018-09-06T08:13:13.415Z,55.50
2018-09-06T08:15:41.707Z,53.40
2018-09-06T08:18:10.026Z,51.83
2018-09-06T08:20:38.372Z,55.17
2018-09-06T08:23:06.721Z,55.00
2018-09-06T08:25:35.008Z,56.60
2018-09-06T08:28:03.317Z,51.50
2018-09-06T08:30:31.804Z,54.13
2018-09-06T08:33:00.885Z,54.23
2018-09-06T08:35:29.194Z,52.67
2018-09-06T08:37:57.571Z,51.87
2018-09-06T08:40:25.863Z,48.37
2018-09-06T08:42:54.488Z,47.23
2018-09-06T08:45:22.868Z,48.97
2018-09-06T08:47:51.101Z,52.10
2018-09-06T08:50:19.457Z,50.17
2018-09-06T08:52:47.739Z,47.53
2018-09-06T08:55:16.041Z,44.27
2018-09-06T08:57:44.342Z,42.17
2018-09-06T09:00:12.642Z,43.67
2018-09-06T09:02:40.987Z,39.03
2018-09-06T09:05:09.242Z,41.00
2018-09-06T09:07:37.663Z,39.67
2018-09-06T09:10:06.317Z,35.47
2018-09-06T09:12:34.669Z,42.27
2018-09-06T09:15:02.934Z,42.10
2018-09-06T09:17:31.302Z,35.37
2018-09-06T09:19:59.590Z,38.60
2018-09-06T09:22:28.012Z,33.43
2018-09-06T09:24:56.183Z,35.27
2018-09-06T09:27:24.484Z,29.60
2018-09-06T09:29:52.850Z,34.07
2018-09-06T09:32:21.159Z,28.10
2018-09-06T09:34:49.482Z,28.00
2018-09-06T09:37:17.773Z,29.90
2018-09-06T09:39:46.199Z,27.10
2018-09-06T09:42:14.502Z,27.37
2018-09-06T09:44:42.811Z,27.50
2018-09-06T09:49:38.712Z,28.23
2018-09-06T09:52:07.022Z,28.37
2018-09-06T09:54:35.322Z,24.23
2018-09-06T09:57:03.692Z,26.87
2018-09-06T09:59:32.036Z,27.03
2018-09-06T10:02:05.755Z,24.87
2018-09-06T10:04:43.321Z,21.97
2018-09-06T10:07:16.841Z,20.87
2018-09-06T10:09:45.150Z,21.13
2018-09-06T10:12:13.454Z,21.40
2018-09-06T10:14:41.811Z,17.93
2018-09-06T10:17:10.142Z,27.70
2018-09-06T10:19:38.498Z,26.87
2018-09-06T10:22:06.820Z,19.73
2018-09-06T10:24:35.130Z,18.80
2018-09-06T10:27:03.506Z,17.73
2018-09-06T10:29:31.796Z,17.43
2018-09-06T10:32:00.115Z,18.10
2018-09-06T10:34:28.426Z,20.70
2018-09-06T10:36:56.759Z,19.63
2018-09-06T10:39:25.158Z,21.27
2018-09-06T10:41:53.440Z,20.73
2018-09-06T10:44:21.763Z,18.27
2018-09-06T10:46:50.167Z,19.53
2018-09-06T10:49:18.467Z,21.13
2018-09-06T10:51:46.800Z,21.20
2018-09-06T10:54:15.203Z,20.57
2018-09-06T10:56:43.508Z,20.37
2018-09-06T10:59:11.812Z,23.80
2018-09-06T11:01:40.160Z,18.83
2018-09-06T11:04:08.472Z,20.77
2018-09-06T11:06:36.787Z,22.20
2018-09-06T11:09:06.199Z,22.20
2018-09-06T11:11:34.635Z,20.00
2018-09-06T11:14:03.013Z,21.00
2018-09-06T11:16:31.411Z,19.17
2018-09-06T11:18:59.716Z,20.20
2018-09-06T11:21:28.072Z,23.70
2018-09-06T11:23:56.361Z,20.43
2018-09-06T11:26:24.679Z,19.50
2018-09-06T11:28:53.037Z,25.10
2018-09-06T11:31:21.382Z,19.47
2018-09-06T11:33:49.674Z,20.77
2018-09-06T11:36:18.041Z,22.53
2018-09-06T11:38:46.358Z,22.03
2018-09-06T11:41:14.672Z,23.20
2018-09-06T11:43:42.972Z,24.17
2018-09-06T11:46:11.286Z,23.43
2018-09-06T11:48:39.682Z,20.43
2018-09-06T11:51:08.542Z,20.40
2018-09-06T11:53:36.869Z,19.70
2018-09-06T11:56:05.550Z,20.50
2018-09-06T11:58:33.848Z,21.10
2018-09-06T12:01:02.218Z,19.90
2018-09-06T12:03:30.602Z,21.00
2018-09-06T12:05:58.937Z,18.93
2018-09-06T12:08:27.289Z,25.57
2018-09-06T12:10:55.601Z,21.30
2018-09-06T12:13:23.924Z,22.83
2018-09-06T12:15:52.215Z,21.07
2018-09-06T12:18:20.577Z,21.70
2018-09-06T12:20:48.912Z,18.27
2018-09-06T12:23:17.210Z,17.87
2018-09-06T12:25:45.605Z,19.23
2018-09-06T12:28:13.885Z,19.43
2018-09-06T12:30:42.243Z,19.83
2018-09-06T12:33:10.581Z,24.73
2018-09-06T12:35:38.834Z,21.60
2018-09-06T12:38:07.191Z,23.00
2018-09-06T12:40:35.493Z,21.07
2018-09-06T12:43:03.938Z,24.10
2018-09-06T12:45:32.239Z,28.50
2018-09-06T12:48:00.555Z,21.77
2018-09-06T12:50:28.873Z,26.60
2018-09-06T12:52:57.166Z,27.60
2018-09-06T12:55:25.571Z,26.93
2018-09-06T12:57:54.281Z,25.37
2018-09-06T13:00:22.581Z,23.83
2018-09-06T13:02:50.917Z,23.47
2018-09-06T13:05:19.340Z,24.50
2018-09-06T13:07:47.661Z,23.10
2018-09-06T13:10:15.969Z,22.30
2018-09-06T13:12:44.317Z,24.00
2018-09-06T13:15:12.652Z,22.60
2018-09-06T13:17:40.988Z,22.87
2018-09-06T13:20:09.289Z,19.50
2018-09-06T13:22:37.769Z,21.07
2018-09-06T13:25:06.222Z,22.00
2018-09-06T13:27:34.578Z,17.67
2018-09-06T13:30:02.897Z,22.80
2018-09-06T13:32:31.240Z,20.40
2018-09-06T13:34:59.560Z,18.37
2018-09-06T13:37:27.870Z,16.00
2018-09-06T13:39:56.201Z,18.93
2018-09-06T13:42:24.538Z,20.20
2018-09-06T13:44:52.878Z,18.40
2018-09-06T13:47:21.201Z,15.33
2018-09-06T13:49:49.517Z,17.63
2018-09-06T13:52:17.914Z,20.47
2018-09-06T13:54:46.163Z,15.87
2018-09-06T13:57:14.561Z,17.20
2018-09-06T13:59:42.862Z,16.60
2018-09-06T14:02:11.141Z,18.23
2018-09-06T14:04:39.470Z,17.60
2018-09-06T14:07:07.757Z,17.53
2018-09-06T14:09:36.113Z,15.63
2018-09-06T14:12:05.199Z,16.90
2018-09-06T14:14:33.519Z,16.83
2018-09-06T14:17:02.271Z,15.23
2018-09-06T14:19:30.629Z,15.53
2018-09-06T14:21:59.006Z,15.70
2018-09-06T14:24:27.305Z,18.70
2018-09-06T14:26:55.775Z,16.43
2018-09-06T14:29:24.110Z,16.87
2018-09-06T14:31:52.454Z,20.20
2018-09-06T14:34:20.764Z,18.50
2018-09-06T14:36:49.049Z,21.20
2018-09-06T14:39:17.367Z,17.93
2018-09-06T14:41:45.644Z,20.70
2018-09-06T14:44:13.953Z,19.40
2018-09-06T14:46:42.293Z,19.57
2018-09-06T14:49:10.597Z,18.80
2018-09-06T14:51:38.876Z,23.20
2018-09-06T14:54:07.176Z,18.10
2018-09-06T14:56:35.497Z,17.33
2018-09-06T14:59:03.817Z,16.70
2018-09-06T15:01:32.122Z,19.30
2018-09-06T15:04:00.480Z,20.13
2018-09-06T15:06:28.781Z,16.77
2018-09-06T15:08:57.131Z,17.77
2018-09-06T15:11:25.449Z,18.00
2018-09-06T15:13:53.900Z,18.60
2018-09-06T15:16:22.160Z,18.50
2018-09-06T15:18:50.484Z,18.00
2018-09-06T15:21:18.809Z,18.00
2018-09-06T15:23:47.138Z,17.73
2018-09-06T15:26:15.479Z,18.63
2018-09-06T15:28:43.778Z,18.30
2018-09-06T15:31:12.106Z,21.00
2018-09-06T15:33:40.401Z,17.60
2018-09-06T15:36:10.170Z,19.03
2018-09-06T15:38:38.463Z,23.33
2018-09-06T15:41:06.784Z,20.13
2018-09-06T15:43:35.098Z,21.43
2018-09-06T15:46:03.430Z,19.20
2018-09-06T15:48:31.758Z,19.97
2018-09-06T15:51:00.066Z,20.60
2018-09-06T15:53:28.384Z,20.90
2018-09-06T15:55:56.784Z,20.60
2018-09-06T15:58:25.046Z,22.10
2018-09-06T16:00:54.071Z,20.40
2018-09-06T16:03:22.386Z,20.00
2018-09-06T16:05:50.664Z,21.00
2018-09-06T16:08:19.004Z,21.73
2018-09-06T16:10:47.326Z,20.90
2018-09-06T16:13:15.628Z,22.33
2018-09-06T16:15:43.949Z,19.80
2018-09-06T16:18:12.547Z,22.03
2018-09-06T16:20:40.858Z,22.63
2018-09-06T16:23:09.235Z,24.60
2018-09-06T16:25:37.721Z,24.67
2018-09-06T16:28:06.076Z,26.93
2018-09-06T16:30:34.420Z,23.70
2018-09-06T16:33:02.762Z,24.17
2018-09-06T16:35:31.084Z,27.00
2018-09-06T16:37:59.437Z,28.83
2018-09-06T16:40:27.760Z,28.17
2018-09-06T16:42:56.085Z,27.73
2018-09-06T16:45:24.466Z,32.87
2018-09-06T16:47:52.833Z,28.37
2018-09-06T16:50:21.260Z,26.30
2018-09-06T16:52:49.653Z,26.63
2018-09-06T16:55:18.110Z,16.03
2018-09-06T16:57:46.465Z,14.50
2018-09-06T17:00:14.850Z,11.97
2018-09-06T17:02:43.225Z,14.40
2018-09-06T17:05:11.578Z,13.83
2018-09-06T17:07:40.066Z,12.90
2018-09-06T17:10:08.566Z,11.20
2018-09-06T17:12:36.990Z,11.00
2018-09-06T17:15:05.401Z,8.50
2018-09-06T17:17:33.858Z,8.93
2018-09-06T17:20:02.197Z,8.63
2018-09-06T17:22:30.561Z,12.00
2018-09-06T17:24:58.912Z,8.90
2018-09-06T17:27:27.333Z,12.20
2018-09-06T17:29:55.770Z,11.50
2018-09-06T17:32:24.116Z,15.60
2018-09-06T17:34:52.565Z,14.37
2018-09-06T17:37:20.897Z,14.77
2018-09-06T17:39:49.245Z,17.30
2018-09-06T17:42:17.671Z,14.70
2018-09-06T17:44:46.050Z,14.60
2018-09-06T17:47:14.402Z,17.07
2018-09-06T17:49:42.751Z,16.30
2018-09-06T17:52:11.125Z,16.57
2018-09-06T17:54:39.460Z,19.20
2018-09-06T17:57:07.845Z,16.87
2018-09-06T17:59:36.182Z,20.30
2018-09-06T18:02:05.409Z,20.83
2018-09-06T18:04:33.776Z,19.50
2018-09-06T18:07:02.100Z,20.17
2018-09-06T18:09:30.484Z,20.23
2018-09-06T18:11:58.828Z,21.37
2018-09-06T18:14:29.235Z,19.23
2018-09-06T18:16:57.682Z,22.00
2018-09-06T18:19:26.127Z,20.70
2018-09-06T18:21:54.519Z,18.83
2018-09-06T18:24:22.844Z,16.40
2018-09-06T18:26:51.262Z,18.97
2018-09-06T18:29:20.792Z,15.70
2018-09-06T18:31:49.122Z,16.67
2018-09-06T18:34:17.437Z,19.27
2018-09-06T18:36:45.808Z,15.57
2018-09-06T18:39:14.145Z,14.40
2018-09-06T18:41:43.393Z,15.57
2018-09-06T18:44:13.566Z,17.20
2018-09-06T18:46:41.990Z,14.33
2018-09-06T18:49:10.428Z,16.57
2018-09-06T18:51:38.771Z,16.37
2018-09-06T18:54:07.100Z,14.17
2018-09-06T18:56:35.506Z,14.33
2018-09-06T18:59:03.818Z,17.80
2018-09-06T19:01:32.212Z,18.57
2018-09-06T19:04:00.565Z,15.73
2018-09-06T19:06:29.166Z,16.27
2018-09-06T19:08:57.565Z,17.17
2018-09-06T19:11:26.110Z,20.60
2018-09-06T19:13:54.527Z,19.97
2018-09-06T19:16:22.897Z,19.30
2018-09-06T19:18:52.467Z,18.30
2018-09-06T19:21:20.811Z,17.43
2018-09-06T19:23:49.111Z,14.57
2018-09-06T19:26:17.489Z,16.20
2018-09-06T19:28:45.827Z,16.70
2018-09-06T19:31:14.199Z,15.73
2018-09-06T19:33:42.534Z,16.53
2018-09-06T19:36:10.970Z,17.37
2018-09-06T19:38:39.343Z,19.67
2018-09-06T19:41:07.664Z,18.30
2018-09-06T19:43:36.050Z,18.53
2018-09-06T19:46:04.449Z,20.17
2018-09-06T19:48:32.781Z,21.27
2018-09-06T19:51:01.132Z,19.73
2018-09-06T19:53:29.691Z,20.33
2018-09-06T19:55:58.030Z,23.10
2018-09-06T19:58:26.352Z,20.43
2018-09-06T20:00:54.754Z,20.27
2018-09-06T20:03:23.148Z,21.63
2018-09-06T20:05:51.504Z,21.80
2018-09-06T20:08:19.852Z,22.33
2018-09-06T20:10:48.240Z,20.90
2018-09-06T20:13:16.640Z,20.63
2018-09-06T20:15:44.999Z,22.10
2018-09-06T20:18:13.325Z,21.23
2018-09-06T20:20:42.019Z,19.37
2018-09-06T20:23:10.386Z,21.20
2018-09-06T20:25:38.759Z,22.57
2018-09-06T20:28:07.213Z,24.83
2018-09-06T20:30:35.638Z,23.60
2018-09-06T20:33:04.185Z,24.43
2018-09-06T20:35:32.644Z,22.27
2018-09-06T20:38:01.092Z,21.90
2018-09-06T20:40:29.452Z,22.27
2018-09-06T20:42:57.765Z,22.60
2018-09-06T20:45:27.850Z,20.97
2018-09-06T20:47:56.232Z,23.73
2018-09-06T20:50:25.370Z,22.93
2018-09-06T20:52:53.885Z,29.20
2018-09-06T20:55:22.395Z,24.80
2018-09-06T20:57:50.944Z,26.37
2018-09-06T21:00:19.729Z,25.40
2018-09-06T21:02:48.170Z,26.53
2018-09-06T21:05:17.826Z,27.20
2018-09-06T21:07:46.275Z,26.17
2018-09-06T21:10:14.703Z,27.10
2018-09-06T21:12:43.045Z,27.17
2018-09-06T21:15:11.440Z,24.03
2018-09-06T21:17:39.848Z,26.60
2018-09-06T21:20:08.622Z,27.53
2018-09-06T21:22:36.986Z,27.70
2018-09-06T21:25:05.284Z,30.60
2018-09-06T21:27:33.673Z,30.73
2018-09-06T21:30:02.425Z,29.83
2018-09-06T21:32:31.760Z,30.47
2018-09-06T21:35:00.121Z,32.27
2018-09-06T21:37:28.540Z,31.23
2018-09-06T21:39:57.489Z,29.90
2018-09-06T21:42:25.801Z,30.43
2018-09-06T21:44:54.149Z,33.00
2018-09-06T21:47:22.469Z,33.00
2018-09-06T21:49:50.776Z,34.37
2018-09-06T21:52:19.137Z,35.50
2018-09-06T21:54:47.480Z,33.03
2018-09-06T21:57:15.792Z,30.73
2018-09-06T21:59:45.134Z,35.30
2018-09-06T22:02:18.814Z,33.33
2018-09-06T22:04:47.896Z,34.57
2018-09-06T22:07:16.224Z,39.97
2018-09-06T22:09:44.584Z,40.37
2018-09-06T22:12:18.428Z,39.80
2018-09-06T22:14:48.482Z,36.83
2018-09-06T22:17:16.940Z,33.87
2018-09-06T22:19:47.189Z,35.23
2018-09-06T22:22:15.875Z,39.17
2018-09-06T22:24:44.432Z,38.53
2018-09-06T22:27:13.565Z,37.10
2018-09-06T22:29:42.071Z,41.13
2018-09-06T22:32:10.565Z,52.07
2018-09-06T22:34:38.918Z,37.87
2018-09-06T22:37:07.226Z,33.87
2018-09-06T22:39:35.631Z,42.97
2018-09-06T22:42:05.890Z,38.90
2018-09-06T22:44:34.295Z,37.30
2018-09-06T22:47:02.616Z,44.20
2018-09-06T22:49:30.966Z,42.87
2018-09-06T22:51:59.327Z,55.73
2018-09-06T22:54:27.656Z,51.67
2018-09-06T22:56:55.961Z,46.87
2018-09-06T22:59:24.366Z,51.40
2018-09-06T23:01:52.814Z,46.00
2018-09-06T23:04:21.165Z,47.67
2018-09-06T23:06:49.502Z,51.33
2018-09-06T23:09:17.856Z,50.00
2018-09-06T23:11:46.137Z,58.97
2018-09-06T23:14:14.389Z,54.43
2018-09-06T23:16:42.743Z,55.47
2018-09-06T23:19:11.080Z,62.87
2018-09-06T23:21:39.473Z,57.03
2018-09-06T23:24:07.784Z,58.90
2018-09-06T23:26:36.126Z,60.80
2018-09-06T23:29:04.410Z,54.37
2018-09-06T23:31:32.777Z,60.63
2018-09-06T23:34:01.090Z,64.40
2018-09-06T23:36:29.875Z,68.97
2018-09-06T23:38:58.206Z,72.27
2018-09-06T23:41:26.543Z,63.77
2018-09-06T23:43:55.404Z,67.33
2018-09-06T23:46:23.729Z,69.33
2018-09-06T23:48:52.343Z,65.20
2018-09-06T23:51:20.666Z,67.17
2018-09-06T23:53:49.001Z,62.27
2018-09-06T23:56:17.278Z,59.17
2018-09-06T23:58:45.646Z,60.33
